Savannah, Texas
Current Conditions -  °F | °C
As of 6:53 PM on Saturday 27 Dec 2014 (Local Time) from KDTO Reporting Station
Overcast Overcast  
Wind Chill: 27°   Ceiling: 7500
Heat Index: 36°   Visibility: 10mi
Dew Point: 26°   Wind: 15mph
Humidity: 67%   Direction: 340°NNW
Pressure: 30.31"   Gusts: 21mph
Location:  33.2863°N, 96.9901°W
Report Text: KDTO 280053Z 34013G18KT 10SM OVC075 02/M03 A3031 RMK AO2 SLP264 T00221033
Loading
Personal Weather Stations






























Interactive Weather Map New forecast layout! Learn more

10-Day Weather Forecast

Advertisements
Track Severe Weather on mobile